Time;durP1;ratioP1;P1;durP2;ratioP2;P2;SDS_P1;SDS_P2;PMS_P1;PMS_P2;Temp;Humidity;BMP_temperature;BMP_pressure;BME280_temperature;BME280_humidity;BME280_pressure;Samples;Min_cycle;Max_cycle;Signal;HPM_P1;HPM_P2
2022/05/15 00:01:18;;;;;;;7.88;4.63;;;;;;;11.60;68.86;94158.56;4894907;29;20053;-48
2022/05/15 00:03:45;;;;;;;7.22;4.35;;;;;;;11.62;68.75;94157.41;4895190;29;20051;-52
2022/05/15 00:06:12;;;;;;;7.93;4.18;;;;;;;11.59;68.50;94159.78;4894713;29;20048;-52
2022/05/15 00:08:39;;;;;;;7.63;4.40;;;;;;;11.52;68.58;94157.13;4895033;29;20045;-48
2022/05/15 00:11:12;;;;;;;6.47;4.15;;;;;;;11.50;68.25;94156.00;4895126;29;20406;-47
2022/05/15 00:13:39;;;;;;;6.25;3.90;;;;;;;11.39;68.66;94154.19;4894289;29;21518;-51
2022/05/15 00:16:06;;;;;;;6.65;4.20;;;;;;;11.34;68.60;94154.63;4894746;29;20048;-50
2022/05/15 00:18:33;;;;;;;7.45;4.00;;;;;;;11.37;68.49;94155.81;4894192;29;21876;-46
2022/05/15 00:21:00;;;;;;;7.63;3.80;;;;;;;11.40;68.20;94149.47;4897879;29;20055;-47
2022/05/15 00:23:27;;;;;;;8.38;3.67;;;;;;;11.37;68.10;94139.31;4901866;29;20048;-49
2022/05/15 00:25:54;;;;;;;6.10;3.90;;;;;;;11.35;67.01;94147.97;4917571;29;20196;-49
2022/05/15 00:28:21;;;;;;;9.20;3.80;;;;;;;11.27;66.88;94140.22;4917264;29;20044;-53
2022/05/15 00:30:48;;;;;;;6.45;3.60;;;;;;;11.26;67.11;94135.94;4917447;29;20048;-53
2022/05/15 00:33:15;;;;;;;6.97;3.20;;;;;;;11.25;66.79;94137.09;4916924;29;20523;-51
2022/05/15 00:35:42;;;;;;;5.60;3.08;;;;;;;11.21;66.77;94137.19;4917413;29;20044;-49
2022/05/15 00:38:09;;;;;;;5.72;3.03;;;;;;;11.14;66.43;94134.53;4916815;29;20163;-49
2022/05/15 00:40:39;;;;;;;5.82;3.20;;;;;;;11.06;66.38;94136.59;4917218;29;20079;-48
2022/05/15 00:43:10;;;;;;;6.20;3.55;;;;;;;11.02;66.88;94137.84;4917120;29;20078;-49
2022/05/15 00:45:37;;;;;;;6.60;3.40;;;;;;;10.85;68.23;94136.88;4916356;29;21836;-49
2022/05/15 00:48:04;;;;;;;5.50;3.80;;;;;;;10.50;71.22;94138.84;4917150;29;20056;-52
2022/05/15 00:50:36;;;;;;;6.13;4.10;;;;;;;10.45;71.61;94139.31;4916570;29;20078;-50
2022/05/15 00:53:09;;;;;;;6.05;4.10;;;;;;;10.37;72.01;94136.66;4917282;29;20417;-52
2022/05/15 00:55:44;;;;;;;7.40;4.45;;;;;;;10.42;71.68;94140.91;4916099;29;20062;-52
2022/05/15 00:58:35;;;;;;;8.97;5.00;;;;;;;10.46;71.28;94146.34;4916543;29;20052;-51
2022/05/15 01:01:04;;;;;;;12.00;6.38;;;;;;;10.52;70.91;94139.22;4915733;29;20048;-47
2022/05/15 01:03:31;;;;;;;11.10;6.38;;;;;;;10.47;70.74;94134.19;4916257;29;20052;-52
2022/05/15 01:05:59;;;;;;;10.10;5.65;;;;;;;10.55;70.40;94136.44;4916812;29;20048;-50
2022/05/15 01:08:28;;;;;;;8.73;5.13;;;;;;;10.61;70.09;94136.78;4916257;29;20048;-51
2022/05/15 01:10:59;;;;;;;10.10;4.77;;;;;;;10.64;69.90;94137.91;4916748;29;20044;-49
2022/05/15 01:13:33;;;;;;;7.90;4.20;;;;;;;10.57;69.52;94130.56;4916476;29;20066;-50
2022/05/15 01:16:01;;;;;;;6.85;3.92;;;;;;;10.53;69.47;94129.81;4916228;29;20434;-54
2022/05/15 01:18:32;;;;;;;6.60;3.80;;;;;;;10.44;69.83;94133.03;4916079;29;20424;-50
2022/05/15 01:21:19;;;;;;;8.00;4.10;;;;;;;10.34;70.50;94137.47;4916607;29;20082;-50
2022/05/15 01:23:46;;;;;;;6.57;3.77;;;;;;;10.35;70.43;94122.56;4909092;29;21158;-54
2022/05/15 01:26:13;;;;;;;6.10;3.88;;;;;;;10.42;70.12;94118.19;4880509;29;20052;-50
2022/05/15 01:28:40;;;;;;;6.38;3.85;;;;;;;10.39;70.35;94117.81;4880730;29;20446;-50
2022/05/15 01:31:07;;;;;;;6.35;3.75;;;;;;;10.33;70.27;94113.19;4896591;29;20053;-50
2022/05/15 01:33:34;;;;;;;6.90;3.90;;;;;;;10.22;70.11;94113.25;4896469;29;20780;-47
2022/05/15 01:36:00;;;;;;;10.50;5.70;;;;;;;10.29;70.32;94113.19;4880379;29;20055;-51
2022/05/15 01:38:27;;;;;;;7.60;4.10;;;;;;;10.30;69.88;94117.53;4892842;29;20044;-54
2022/05/15 01:40:54;;;;;;;7.55;3.40;;;;;;;10.05;70.38;94119.72;4889237;29;20063;-50
2022/05/15 01:43:21;;;;;;;6.00;3.47;;;;;;;10.06;70.02;94118.53;4896672;29;20052;-53
2022/05/15 01:45:47;;;;;;;5.57;3.53;;;;;;;10.13;70.33;94118.47;4897137;29;20059;-51
2022/05/15 01:48:15;;;;;;;4.83;3.13;;;;;;;10.15;70.03;94116.09;4896589;29;20052;-49
2022/05/15 01:50:42;;;;;;;6.65;3.60;;;;;;;10.10;70.19;94116.53;4897036;29;20053;-50
2022/05/15 01:53:10;;;;;;;7.55;3.95;;;;;;;9.98;70.96;94112.34;4896582;29;20052;-49
2022/05/15 01:55:37;;;;;;;6.25;3.72;;;;;;;10.09;70.94;94109.50;4896955;29;20048;-53
2022/05/15 01:58:03;;;;;;;6.78;3.90;;;;;;;10.14;70.62;94109.03;4897008;29;20103;-48
2022/05/15 02:00:30;;;;;;;7.90;3.40;;;;;;;10.13;70.10;94112.97;4896500;29;20109;-50
2022/05/15 02:02:57;;;;;;;6.07;3.35;;;;;;;10.15;69.51;94105.13;4896867;29;20048;-48
2022/05/15 02:05:24;;;;;;;7.28;3.50;;;;;;;10.14;69.75;94112.59;4896395;29;20057;-48
2022/05/15 02:07:51;;;;;;;6.90;3.65;;;;;;;10.09;70.01;94106.75;4896765;29;20049;-51
2022/05/15 02:10:18;;;;;;;6.95;3.67;;;;;;;9.95;70.94;94110.41;4896242;29;20066;-50
2022/05/15 02:12:46;;;;;;;6.93;3.40;;;;;;;9.90;71.11;94102.63;4896713;29;20055;-51
2022/05/15 02:15:14;;;;;;;7.32;3.60;;;;;;;9.77;71.49;94105.88;4896862;29;20319;-50
2022/05/15 02:17:40;;;;;;;6.18;3.22;;;;;;;9.73;71.42;94105.13;4915619;29;20055;-48
2022/05/15 02:20:10;;;;;;;5.38;3.10;;;;;;;9.76;71.69;94103.56;4915664;29;20441;-49
2022/05/15 02:22:38;;;;;;;5.45;3.60;;;;;;;9.73;71.96;94116.09;4914074;29;21515;-51
2022/05/15 02:25:10;;;;;;;16.87;8.50;;;;;;;9.73;71.42;94110.59;4915335;29;20460;-52
2022/05/15 02:27:37;;;;;;;8.57;3.92;;;;;;;9.73;71.72;94107.09;4914515;29;20110;-47
2022/05/15 02:30:06;;;;;;;6.30;3.63;;;;;;;9.71;71.75;94115.72;4915325;29;20051;-52
2022/05/15 02:32:33;;;;;;;6.78;3.60;;;;;;;9.60;72.52;94099.38;4914937;29;20044;-49
2022/05/15 02:35:00;;;;;;;7.25;4.10;;;;;;;9.44;73.22;94103.81;4915321;29;20039;-46
2022/05/15 02:37:26;;;;;;;6.60;3.70;;;;;;;9.37;73.55;94107.38;4913724;29;20048;-53
2022/05/15 02:39:53;;;;;;;6.10;3.80;;;;;;;9.42;72.66;94098.75;4906969;29;20417;-46
2022/05/15 02:42:23;;;;;;;6.53;3.70;;;;;;;9.31;73.68;94101.56;4897448;29;20071;-49
2022/05/15 02:44:50;;;;;;;7.68;3.67;;;;;;;9.29;73.54;94097.66;4895968;29;20066;-52
2022/05/15 02:47:16;;;;;;;5.22;3.50;;;;;;;9.38;73.08;94096.03;4895565;29;20063;-50
2022/05/15 02:52:28;;;;;;;7.40;3.83;;;;;;;9.46;73.09;94096.00;4895578;29;20052;-53
2022/05/15 02:54:55;;;;;;;6.28;3.90;;;;;;;9.38;72.80;94095.25;4895949;29;20062;-47
2022/05/15 02:57:22;;;;;;;5.72;3.58;;;;;;;9.33;73.25;94098.41;4895644;29;20052;-47
2022/05/15 02:59:49;;;;;;;5.32;3.40;;;;;;;9.34;73.20;94091.78;4895947;29;20052;-49
2022/05/15 03:02:16;;;;;;;6.60;3.47;;;;;;;9.35;72.68;94096.81;4895566;29;20048;-52
2022/05/15 03:04:42;;;;;;;9.75;5.28;;;;;;;9.30;73.66;94099.25;4896020;29;20087;-46
2022/05/15 03:07:09;;;;;;;9.27;5.00;;;;;;;9.13;73.71;94100.91;4895402;29;20044;-50
2022/05/15 03:09:36;;;;;;;5.65;3.78;;;;;;;9.04;74.09;94101.38;4894381;29;20075;-47
2022/05/15 03:12:03;;;;;;;6.10;4.00;;;;;;;9.08;74.00;94098.59;4895589;29;20051;-46
2022/05/15 03:14:30;;;;;;;8.10;4.17;;;;;;;9.12;73.72;94099.38;4895279;29;20052;-46
2022/05/15 03:16:57;;;;;;;6.38;3.20;;;;;;;9.09;74.12;94102.88;4895543;29;20517;-52
2022/05/15 03:19:24;;;;;;;6.53;3.40;;;;;;;9.23;73.31;94099.28;4895091;29;20071;-49
2022/05/15 03:21:52;;;;;;;7.15;3.60;;;;;;;9.25;73.20;94097.69;4895651;29;20454;-49
2022/05/15 03:24:18;;;;;;;7.47;3.67;;;;;;;9.26;73.97;94103.97;4905528;29;20044;-48
2022/05/15 03:26:47;;;;;;;6.27;3.60;;;;;;;9.22;73.73;94112.19;4913202;29;20036;-46
2022/05/15 03:29:17;;;;;;;7.15;3.97;;;;;;;9.15;74.24;94099.31;4914004;29;20044;-47
2022/05/15 03:31:46;;;;;;;7.38;3.90;;;;;;;9.12;74.66;94104.84;4914242;29;20063;-46
2022/05/15 03:34:14;;;;;;;8.25;3.97;;;;;;;8.90;75.29;94112.41;4912581;29;20058;-49
2022/05/15 03:36:43;;;;;;;6.90;3.75;;;;;;;8.69;76.73;94111.34;4914276;29;20121;-47
2022/05/15 03:39:10;;;;;;;14.87;8.83;;;;;;;8.85;75.85;94110.06;4902408;29;20051;-47
2022/05/15 03:41:38;;;;;;;10.85;6.68;;;;;;;8.85;75.39;94116.31;4905497;29;20377;-48
2022/05/15 03:44:05;;;;;;;7.75;4.72;;;;;;;8.96;75.59;94108.84;4895378;29;20056;-47
2022/05/15 03:46:32;;;;;;;6.53;3.90;;;;;;;9.05;74.50;94116.59;4894631;29;20060;-52
2022/05/15 03:48:59;;;;;;;6.13;3.78;;;;;;;9.13;74.47;94120.06;4895136;29;20045;-48
2022/05/15 03:51:26;;;;;;;7.10;3.73;;;;;;;9.14;74.64;94110.69;4894842;29;20052;-51
2022/05/15 03:53:53;;;;;;;6.75;4.03;;;;;;;9.11;74.73;94116.97;4895389;29;20044;-49
2022/05/15 03:56:49;;;;;;;5.88;3.80;;;;;;;9.10;74.91;94121.66;4898518;29;20107;-53
2022/05/15 03:59:08;;;;;;;7.10;3.90;;;;;;;9.15;74.20;94125.94;4898665;29;20047;-46
2022/05/15 04:01:35;;;;;;;7.40;4.10;;;;;;;9.14;74.29;94121.66;4899163;29;20379;-46
2022/05/15 04:04:02;;;;;;;8.93;3.80;;;;;;;9.18;74.41;94122.41;4898866;29;20044;-47
2022/05/15 04:06:29;;;;;;;6.47;3.97;;;;;;;9.09;74.31;94113.84;4898688;29;20509;-50
2022/05/15 04:08:56;;;;;;;7.25;4.20;;;;;;;9.23;74.20;94116.47;4899021;29;20053;-54
2022/05/15 04:11:23;;;;;;;5.93;3.90;;;;;;;9.27;73.80;94117.22;4898621;29;20044;-51
2022/05/15 04:13:50;;;;;;;7.85;3.92;;;;;;;9.38;73.73;94117.16;4898939;29;20052;-49
2022/05/15 04:16:17;;;;;;;6.03;3.80;;;;;;;9.44;73.55;94114.75;4898047;29;20051;-47
2022/05/15 04:18:44;;;;;;;7.60;4.00;;;;;;;9.49;73.23;94117.09;4898808;29;20041;-46
2022/05/15 04:21:10;;;;;;;7.25;4.15;;;;;;;9.30;73.99;94116.44;4898305;29;20067;-50
2022/05/15 04:23:38;;;;;;;7.40;4.65;;;;;;;9.40;73.71;94117.53;4903668;29;20036;-47
2022/05/15 04:26:05;;;;;;;6.60;4.28;;;;;;;9.55;73.45;94118.97;4917497;29;20044;-53
2022/05/15 04:28:31;;;;;;;7.67;4.40;;;;;;;9.52;73.47;94116.28;4917212;29;20050;-52
2022/05/15 04:31:05;;;;;;;6.63;4.30;;;;;;;9.68;72.88;94116.53;4917699;29;20115;-52
2022/05/15 04:33:32;;;;;;;6.80;4.45;;;;;;;9.75;72.48;94118.44;4917059;29;20048;-53
2022/05/15 04:35:59;;;;;;;7.65;4.40;;;;;;;9.71;73.31;94115.72;4917393;29;20048;-49
2022/05/15 04:38:26;;;;;;;8.15;4.20;;;;;;;9.83;72.45;94121.88;4910903;29;20558;-54
2022/05/15 04:40:53;;;;;;;6.93;4.50;;;;;;;9.79;72.42;94121.91;4909361;29;20044;-53
2022/05/15 04:43:20;;;;;;;8.82;4.40;;;;;;;9.70;72.74;94118.84;4897773;29;20040;-47
2022/05/15 04:45:47;;;;;;;7.88;4.22;;;;;;;9.70;73.25;94119.66;4898276;29;20055;-48
2022/05/15 04:48:14;;;;;;;7.07;4.22;;;;;;;9.76;73.28;94120.78;4897952;29;20044;-47
2022/05/15 04:50:42;;;;;;;7.85;4.43;;;;;;;9.56;73.46;94122.50;4898127;29;20044;-47
2022/05/15 04:53:09;;;;;;;6.50;4.10;;;;;;;9.48;73.97;94121.78;4897974;29;20045;-50
2022/05/15 04:55:35;;;;;;;7.13;4.38;;;;;;;9.66;73.55;94123.59;4898305;29;20048;-51
2022/05/15 04:58:02;;;;;;;7.85;4.43;;;;;;;9.55;74.10;94115.47;4898232;29;20045;-50
2022/05/15 05:00:29;;;;;;;6.47;4.45;;;;;;;9.49;74.23;94123.34;4897921;29;20118;-49
2022/05/15 05:02:56;;;;;;;7.00;4.60;;;;;;;9.64;74.29;94120.47;4897826;29;20071;-48
2022/05/15 05:05:23;;;;;;;7.70;4.47;;;;;;;9.78;73.69;94132.09;4897060;29;20044;-52
2022/05/15 05:07:50;;;;;;;7.15;4.00;;;;;;;9.76;73.66;94125.47;4896784;29;20045;-49
2022/05/15 05:10:18;;;;;;;6.13;4.18;;;;;;;9.95;73.58;94129.59;4897364;29;20055;-49
2022/05/15 05:12:45;;;;;;;8.55;4.35;;;;;;;10.05;72.96;94125.22;4898003;29;20443;-53
2022/05/15 05:15:13;;;;;;;7.32;4.47;;;;;;;10.15;73.18;94130.56;4896879;29;20048;-46
2022/05/15 05:17:41;;;;;;;7.33;4.40;;;;;;;10.24;72.99;94127.38;4897793;29;20044;-46
2022/05/15 05:20:09;;;;;;;8.80;4.32;;;;;;;10.33;72.74;94127.69;4897696;29;20067;-48
2022/05/15 05:22:36;;;;;;;11.15;4.10;;;;;;;10.37;72.54;94122.94;4896880;29;20631;-49
2022/05/15 05:25:04;;;;;;;6.97;4.10;;;;;;;10.65;72.11;94131.25;4913874;29;20618;-48
2022/05/15 05:27:30;;;;;;;6.38;4.05;;;;;;;10.97;71.43;94119.84;4916072;29;20044;-53
2022/05/15 05:29:57;;;;;;;7.30;4.40;;;;;;;11.17;70.82;94126.25;4916567;29;20058;-52
2022/05/15 05:32:24;;;;;;;8.70;4.50;;;;;;;11.32;70.49;94131.53;4916013;29;20508;-53
2022/05/15 05:34:51;;;;;;;7.60;4.50;;;;;;;11.29;71.28;94133.16;4916237;29;20056;-49
2022/05/15 05:37:18;;;;;;;7.82;4.05;;;;;;;11.73;70.03;94127.75;4915889;29;20056;-48
2022/05/15 05:39:45;;;;;;;6.80;4.10;;;;;;;12.51;67.37;94128.34;4916103;29;20046;-48
2022/05/15 05:42:12;;;;;;;6.37;4.30;;;;;;;15.60;57.85;94119.91;4915900;29;20046;-50
2022/05/15 05:44:39;;;;;;;7.35;4.22;;;;;;;18.04;50.98;94125.13;4916114;29;20055;-51
2022/05/15 05:47:06;;;;;;;6.82;3.90;;;;;;;20.35;45.63;94123.47;4916038;29;20044;-53
2022/05/15 05:49:33;;;;;;;6.22;3.53;;;;;;;22.25;40.92;94123.81;4915317;29;20070;-51
2022/05/15 05:52:00;;;;;;;6.88;3.53;;;;;;;23.56;38.02;94123.31;4916037;29;20046;-51
2022/05/15 05:54:27;;;;;;;5.37;3.33;;;;;;;22.45;38.79;94125.88;4915678;29;20052;-51
2022/05/15 05:56:53;;;;;;;5.82;3.63;;;;;;;23.26;36.62;94129.13;4916023;29;20052;-55
2022/05/15 05:59:20;;;;;;;5.55;3.47;;;;;;;22.46;39.20;94133.03;4915448;29;20054;-53
2022/05/15 06:01:47;;;;;;;5.53;3.78;;;;;;;21.90;40.05;94129.41;4916116;29;20048;-53
2022/05/15 06:06:59;;;;;;;5.80;3.43;;;;;;;25.44;33.65;94113.41;4915832;29;20040;-51
2022/05/15 06:09:26;;;;;;;6.45;3.40;;;;;;;26.27;32.30;94114.66;4904153;29;20076;-53
2022/05/15 06:11:57;;;;;;;4.57;3.15;;;;;;;27.57;30.32;94114.19;4927348;29;20048;-47
2022/05/15 06:14:25;;;;;;;5.80;3.30;;;;;;;28.04;29.54;94110.50;4913667;29;20048;-50
2022/05/15 06:16:52;;;;;;;5.07;3.15;;;;;;;28.09;28.67;94106.84;4915387;29;20122;-55
2022/05/15 06:19:19;;;;;;;5.47;3.70;;;;;;;27.65;29.14;94103.13;4913477;29;20052;-56
2022/05/15 06:21:45;;;;;;;5.13;3.10;;;;;;;27.64;29.68;94107.22;4915598;29;20485;-56
2022/05/15 06:24:12;;;;;;;6.25;3.40;;;;;;;25.64;32.21;94101.91;4914810;29;20052;-52
2022/05/15 06:26:39;;;;;;;6.80;3.40;;;;;;;27.50;29.29;94095.75;4915482;29;20048;-51
2022/05/15 06:29:07;;;;;;;6.70;3.42;;;;;;;27.55;29.02;94096.25;4915297;29;20036;-49
2022/05/15 06:31:33;;;;;;;6.60;3.53;;;;;;;27.95;29.45;94103.16;4914671;29;20044;-50
2022/05/15 06:34:00;;;;;;;6.20;3.42;;;;;;;28.94;27.71;94106.78;4915346;29;20110;-49
2022/05/15 06:36:27;;;;;;;6.00;3.40;;;;;;;29.44;26.29;94104.59;4914830;29;20066;-55
2022/05/15 06:38:54;;;;;;;5.63;3.00;;;;;;;29.64;26.20;94100.44;4915205;29;20075;-50
2022/05/15 06:41:20;;;;;;;4.18;3.13;;;;;;;30.39;24.67;94101.59;4914783;29;20044;-49
2022/05/15 06:43:47;;;;;;;6.60;3.30;;;;;;;29.84;25.88;94088.59;4914971;29;20044;-51
2022/05/15 06:46:14;;;;;;;5.20;3.00;;;;;;;30.74;25.33;94091.88;4914103;29;20122;-55
2022/05/15 06:48:41;;;;;;;5.05;3.22;;;;;;;30.53;25.41;94086.13;4915057;29;20315;-53
2022/05/15 06:51:08;;;;;;;4.93;3.13;;;;;;;31.72;24.16;94087.28;4914492;29;20532;-51
2022/05/15 06:53:35;;;;;;;5.32;3.20;;;;;;;31.08;24.78;94094.06;4913562;29;20051;-54
2022/05/15 06:58:47;;;;;;;5.80;2.90;;;;;;;33.56;22.20;94089.88;4912900;29;20082;-50
2022/05/15 07:01:14;;;;;;;3.70;2.70;;;;;;;32.13;24.00;94093.53;4914327;29;20058;-54
2022/05/15 07:03:41;;;;;;;5.93;2.90;;;;;;;31.34;24.87;94093.25;4914923;29;20040;-54
2022/05/15 07:06:10;;;;;;;4.10;2.92;;;;;;;31.33;25.36;94086.06;4914747;29;20511;-52
2022/05/15 07:08:37;;;;;;;6.13;2.90;;;;;;;32.69;23.85;94089.25;4908565;29;20044;-54
2022/05/15 07:11:04;;;;;;;5.32;2.85;;;;;;;33.81;22.79;94088.06;4906472;29;20049;-54
2022/05/15 07:13:32;;;;;;;3.90;2.80;;;;;;;33.88;22.22;94089.41;4895311;29;20048;-51
2022/05/15 07:15:59;;;;;;;4.28;2.80;;;;;;;34.76;21.44;94083.38;4895269;29;20063;-51
2022/05/15 07:18:26;;;;;;;6.28;2.80;;;;;;;35.80;20.52;94080.53;4895060;29;20521;-51
2022/05/15 07:20:53;;;;;;;4.33;2.67;;;;;;;33.92;21.69;94083.34;4895393;29;20075;-51
2022/05/15 07:23:20;;;;;;;4.65;3.13;;;;;;;31.94;24.56;94088.06;4897844;29;20040;-52
2022/05/15 07:25:49;;;;;;;4.93;2.97;;;;;;;33.32;23.21;94088.25;4914526;29;20058;-51
2022/05/15 07:28:16;;;;;;;4.93;2.90;;;;;;;33.12;22.80;94096.34;4913841;29;20044;-51
2022/05/15 07:30:43;;;;;;;4.97;3.17;;;;;;;34.00;22.03;94084.09;4913804;29;20040;-49
2022/05/15 07:33:10;;;;;;;7.10;3.10;;;;;;;34.87;20.42;94085.03;4913741;29;20044;-52
2022/05/15 07:35:36;;;;;;;6.18;3.10;;;;;;;36.29;19.53;94083.28;4928400;29;20048;-51
2022/05/15 07:38:03;;;;;;;5.07;2.90;;;;;;;35.21;20.92;94078.13;4914258;29;20051;-49
2022/05/15 07:40:30;;;;;;;4.40;3.17;;;;;;;36.25;19.34;94080.06;4913792;29;20046;-50
2022/05/15 07:42:57;;;;;;;6.78;3.10;;;;;;;35.24;20.01;94074.13;4897240;29;20056;-54
2022/05/15 07:45:23;;;;;;;4.47;3.30;;;;;;;33.62;21.81;94085.56;4913486;29;20052;-49
2022/05/15 07:47:50;;;;;;;4.70;3.15;;;;;;;34.75;21.04;94078.22;4928627;29;20481;-49
2022/05/15 07:50:17;;;;;;;5.15;3.00;;;;;;;36.59;19.07;94077.28;4913691;29;20211;-51
2022/05/15 07:52:45;;;;;;;5.75;3.63;;;;;;;36.41;18.85;94066.44;4913950;29;20052;-51
2022/05/15 07:55:12;;;;;;;5.57;3.20;;;;;;;35.95;18.69;94076.06;4913612;29;20051;-52
2022/05/15 07:57:38;;;;;;;6.90;3.80;;;;;;;28.85;26.89;94074.00;4913915;29;20099;-54
2022/05/15 08:00:09;;;;;;;5.70;3.05;;;;;;;34.03;21.35;94065.88;4914243;29;20486;-50
2022/05/15 08:02:36;;;;;;;5.43;3.70;;;;;;;33.43;21.61;94070.88;4913258;29;20675;-52
2022/05/15 08:08:02;;;;;;;6.43;4.00;;;;;;;32.81;22.67;94064.88;4911265;29;20044;-52
2022/05/15 08:10:34;;;;;;;6.13;3.30;;;;;;;32.64;22.94;94062.53;4905625;29;20172;-51
2022/05/15 08:13:01;;;;;;;4.93;3.10;;;;;;;35.40;19.59;94058.47;4893989;29;20040;-51
2022/05/15 08:15:29;;;;;;;5.55;3.20;;;;;;;34.31;20.86;94064.97;4894325;29;20063;-55
2022/05/15 08:17:55;;;;;;;4.60;3.38;;;;;;;29.95;25.14;94069.91;4895194;29;20059;-51
2022/05/15 08:25:52;;;;;;;6.57;2.92;;;;;;;34.69;20.36;94049.16;4912843;29;20429;-51
2022/05/15 08:28:19;;;;;;;6.25;3.55;;;;;;;31.53;23.67;94059.09;4927739;29;20048;-54
2022/05/15 08:30:46;;;;;;;5.18;3.33;;;;;;;30.89;24.22;94051.72;4913872;29;20041;-52
2022/05/15 08:33:13;;;;;;;6.38;3.45;;;;;;;30.02;25.20;94060.75;4913314;29;20449;-55
2022/05/15 08:35:39;;;;;;;7.70;3.20;;;;;;;28.80;27.43;94060.72;4913655;29;20048;-51
2022/05/15 08:38:06;;;;;;;5.40;3.60;;;;;;;28.52;27.47;94068.78;4913551;29;20048;-49
2022/05/15 08:41:00;;;;;;;6.93;3.60;;;;;;;27.52;29.06;94055.78;4913635;29;20728;-50
2022/05/15 08:43:57;;;;;;;6.35;3.60;;;;;;;27.02;29.20;94065.28;4916758;29;20058;-51
2022/05/15 08:46:40;;;;;;;5.32;3.70;;;;;;;26.91;29.90;94068.94;4916466;29;20071;-50
2022/05/15 08:49:26;;;;;;;7.03;3.60;;;;;;;27.41;29.06;94061.50;4917213;29;20066;-56
2022/05/15 08:52:02;;;;;;;5.85;3.60;;;;;;;27.76;29.07;94063.53;4916141;29;20772;-53
2022/05/15 08:54:29;;;;;;;6.07;3.60;;;;;;;26.72;30.80;94059.56;4916601;29;20048;-50
2022/05/15 08:56:56;;;;;;;5.80;3.72;;;;;;;25.76;32.50;94068.19;4916786;29;20118;-48
2022/05/15 08:59:32;;;;;;;6.13;3.90;;;;;;;26.76;30.30;94058.00;4916423;29;20520;-52
2022/05/15 09:02:00;;;;;;;7.57;3.73;;;;;;;27.39;29.63;94056.41;4916965;29;20043;-54
2022/05/15 09:04:29;;;;;;;5.00;3.30;;;;;;;29.19;26.22;94061.53;4916382;29;20619;-53
2022/05/15 09:07:08;;;;;;;5.18;3.20;;;;;;;27.13;29.27;94053.97;4915600;29;20059;-53
2022/05/15 09:09:50;;;;;;;5.60;3.40;;;;;;;29.27;27.73;94059.59;4909587;29;20800;-55
2022/05/15 09:12:23;;;;;;;5.75;3.35;;;;;;;28.63;26.67;94063.75;4897270;29;20048;-51
2022/05/15 09:15:01;;;;;;;5.13;3.20;;;;;;;29.30;25.60;94064.19;4912069;29;20037;-54
2022/05/15 09:17:57;;;;;;;6.07;2.97;;;;;;;28.74;26.00;94068.50;4897170;29;20060;-50
2022/05/15 09:21:08;;;;;;;5.60;2.85;;;;;;;27.45;27.58;94067.63;4897124;29;20045;-52
2022/05/15 09:23:39;;;;;;;5.15;2.97;;;;;;;29.13;25.77;94067.25;4914443;29;21536;-50
2022/05/15 09:26:06;;;;;;;6.25;3.25;;;;;;;28.28;26.04;94075.91;4916381;29;20059;-53
2022/05/15 09:28:49;;;;;;;6.13;3.20;;;;;;;26.01;29.33;94064.34;4915860;29;20046;-50
2022/05/15 09:31:25;;;;;;;5.45;3.42;;;;;;;26.46;29.30;94060.66;4915864;29;20052;-51
2022/05/15 09:34:00;;;;;;;6.68;3.22;;;;;;;27.10;27.16;94060.63;4916407;29;20437;-53
2022/05/15 09:36:33;;;;;;;4.90;2.92;;;;;;;28.51;25.90;94055.94;4915719;29;20052;-50
2022/05/15 09:39:26;;;;;;;5.72;3.10;;;;;;;29.71;24.83;94065.91;4915983;29;20074;-51
2022/05/15 09:45:20;;;;;;;5.05;2.88;;;;;;;30.16;24.13;94064.38;4914974;29;20118;-47
2022/05/15 09:47:52;;;;;;;5.80;3.00;;;;;;;28.98;25.55;94061.28;4915109;29;21856;-51
2022/05/15 09:50:42;;;;;;;5.15;2.97;;;;;;;28.45;25.66;94061.59;4915501;29;20413;-49
2022/05/15 09:53:33;;;;;;;6.47;2.85;;;;;;;29.53;24.56;94061.78;4914848;29;20062;-54
2022/05/15 09:56:13;;;;;;;5.60;2.67;;;;;;;29.16;25.43;94057.72;4915790;29;20059;-49
2022/05/15 09:58:53;;;;;;;5.68;2.70;;;;;;;29.26;23.53;94060.91;4913920;29;20862;-50
2022/05/15 10:01:40;;;;;;;4.63;2.80;;;;;;;29.79;23.87;94055.47;4915482;29;20055;-52
2022/05/15 10:04:21;;;;;;;7.25;2.70;;;;;;;28.38;25.17;94062.22;4915917;29;20084;-49
2022/05/15 10:06:52;;;;;;;4.95;2.80;;;;;;;28.21;24.10;94068.03;4914926;29;21550;-53
2022/05/15 10:09:37;;;;;;;5.60;2.70;;;;;;;27.24;26.40;94061.63;4915159;29;20082;-54
2022/05/15 10:12:15;;;;;;;4.53;2.65;;;;;;;27.94;25.62;94059.31;4915669;29;20063;-54
2022/05/15 10:14:51;;;;;;;3.63;2.72;;;;;;;27.93;24.70;94054.97;4914378;29;20322;-53
2022/05/15 10:17:20;;;;;;;7.35;2.80;;;;;;;27.77;25.09;94056.63;4914724;29;20048;-51
2022/05/15 10:20:02;;;;;;;4.63;2.85;;;;;;;29.92;22.73;94051.91;4914117;29;20055;-52
2022/05/15 10:22:47;;;;;;;4.43;2.70;;;;;;;28.96;23.40;94047.69;4914896;29;20055;-49
2022/05/15 10:25:49;;;;;;;5.35;2.60;;;;;;;28.61;24.65;94046.56;4896351;29;20049;-50
2022/05/15 10:28:39;;;;;;;4.32;2.50;;;;;;;28.02;24.44;94051.03;4895641;29;20049;-50
2022/05/15 10:31:18;;;;;;;5.10;2.65;;;;;;;28.58;23.48;94038.41;4896309;29;20041;-47
2022/05/15 10:33:56;;;;;;;4.20;2.40;;;;;;;30.88;21.17;94038.06;4878420;29;20217;-54
2022/05/15 10:37:05;;;;;;;4.70;2.50;;;;;;;30.54;21.25;94038.72;4895822;29;20071;-50
2022/05/15 10:39:59;;;;;;;4.28;2.35;;;;;;;30.12;22.40;94030.72;4861195;29;20490;-47
2022/05/15 10:42:58;;;;;;;5.30;2.65;;;;;;;28.63;22.60;94029.88;4895438;29;20044;-49
2022/05/15 10:45:40;;;;;;;5.05;2.40;;;;;;;28.71;23.30;94034.91;4895557;29;20059;-51
2022/05/15 10:48:32;;;;;;;4.68;2.58;;;;;;;28.14;24.42;94020.66;4895878;29;20048;-50
2022/05/15 10:51:08;;;;;;;5.73;2.70;;;;;;;28.76;23.26;94020.72;4894952;29;20861;-52
2022/05/15 10:57:29;;;;;;;5.82;2.65;;;;;;;26.74;25.61;94020.38;4894947;29;20401;-53
2022/05/15 11:00:26;;;;;;;6.40;2.60;;;;;;;26.89;25.45;94013.13;4894963;29;20090;-48
2022/05/15 11:02:58;;;;;;;4.68;2.95;;;;;;;26.21;27.25;94014.69;4894758;29;20045;-49
2022/05/15 11:05:30;;;;;;;5.17;2.70;;;;;;;26.76;26.49;94000.94;4894430;29;20049;-50
2022/05/15 11:08:22;;;;;;;5.70;3.10;;;;;;;25.56;28.79;94008.16;4895735;29;20504;-50
2022/05/15 11:10:53;;;;;;;6.65;3.00;;;;;;;25.78;28.21;94000.97;4894819;29;20519;-52
2022/05/15 11:13:28;;;;;;;5.93;2.90;;;;;;;25.33;28.25;94003.81;4895072;29;20103;-53
2022/05/15 11:16:21;;;;;;;4.68;2.83;;;;;;;25.82;28.58;94007.09;4884325;29;20052;-53
2022/05/15 11:18:54;;;;;;;4.83;2.90;;;;;;;25.45;28.47;93994.09;4913821;29;22151;-49
2022/05/15 11:21:36;;;;;;;5.88;3.00;;;;;;;26.11;27.96;94000.91;4909708;29;20046;-51
2022/05/15 11:24:23;;;;;;;4.55;3.17;;;;;;;25.21;30.51;93989.78;4912110;29;20040;-52
2022/05/15 11:26:55;;;;;;;5.90;2.92;;;;;;;24.74;31.11;93985.84;4909412;29;20671;-51
2022/05/15 11:29:24;;;;;;;4.38;3.00;;;;;;;25.37;29.07;93981.84;4913888;29;20517;-51
2022/05/15 11:31:56;;;;;;;6.37;2.80;;;;;;;25.91;28.57;93979.50;4914275;29;20047;-54
2022/05/15 11:35:02;;;;;;;3.95;2.85;;;;;;;25.15;28.77;93979.78;4913648;29;20048;-47
2022/05/15 11:37:38;;;;;;;6.40;3.08;;;;;;;24.63;29.84;93986.56;4913731;29;20400;-49
2022/05/15 11:40:28;;;;;;;5.05;2.78;;;;;;;23.76;31.28;94002.72;4914207;29;20036;-48
2022/05/15 11:42:55;;;;;;;6.60;3.63;;;;;;;24.52;31.10;93978.91;4912159;29;20612;-51
2022/05/15 11:45:29;;;;;;;5.20;3.40;;;;;;;25.22;29.81;93968.84;4913624;29;20131;-48
2022/05/15 11:48:01;;;;;;;4.30;2.80;;;;;;;25.52;27.51;93979.56;4914195;29;20063;-50
2022/05/15 11:50:38;;;;;;;4.50;2.85;;;;;;;25.36;28.57;93972.66;4913395;29;20097;-53
2022/05/15 11:53:11;;;;;;;5.88;3.22;;;;;;;25.02;31.53;93977.47;4914099;29;20040;-49
2022/05/15 11:55:47;;;;;;;5.28;3.15;;;;;;;24.61;31.44;93989.13;4913091;29;20939;-46
2022/05/15 11:58:33;;;;;;;4.90;2.60;;;;;;;24.47;30.43;93971.22;4913559;29;20044;-51
2022/05/15 12:01:38;;;;;;;5.88;3.13;;;;;;;24.31;32.41;93972.69;4914136;29;20052;-52
2022/05/15 12:04:18;;;;;;;6.72;3.15;;;;;;;24.20;30.86;93981.81;4913371;29;20056;-53
2022/05/15 12:06:57;;;;;;;4.60;3.10;;;;;;;24.88;30.51;93970.81;4913032;29;21594;-50
2022/05/15 12:09:44;;;;;;;4.95;2.92;;;;;;;24.96;29.93;93959.88;4913415;29;20056;-50
2022/05/15 12:12:20;;;;;;;5.67;2.87;;;;;;;25.05;29.23;93965.22;4913854;29;20048;-50
2022/05/15 12:15:03;;;;;;;5.07;2.90;;;;;;;24.90;29.11;93955.00;4914000;29;20166;-52
2022/05/15 12:17:34;;;;;;;4.95;2.80;;;;;;;24.34;30.87;93963.25;4916926;29;20058;-49